createdAt,value
2022-09-14T00:00:09.412Z,14.66
2022-09-14T00:02:42.462Z,14.59
2022-09-14T00:05:15.199Z,14.58
2022-09-14T00:07:53.229Z,14.52
2022-09-14T00:10:25.946Z,14.46
2022-09-14T00:13:00.222Z,14.41
2022-09-14T00:15:36.037Z,14.41
2022-09-14T00:18:11.435Z,14.38
2022-09-14T00:20:48.137Z,14.37
2022-09-14T00:23:24.996Z,14.30
2022-09-14T00:26:06.221Z,14.30
2022-09-14T00:28:43.885Z,14.21
2022-09-14T00:31:18.252Z,14.18
2022-09-14T00:33:52.461Z,14.13
2022-09-14T00:36:29.261Z,14.08
2022-09-14T00:39:02.989Z,14.07
2022-09-14T00:41:38.060Z,14.03
2022-09-14T00:44:10.523Z,14.03
2022-09-14T00:46:46.974Z,14.00
2022-09-14T00:49:27.688Z,13.96
2022-09-14T00:52:08.913Z,13.91
2022-09-14T00:54:44.690Z,13.91
2022-09-14T00:57:18.766Z,13.85
2022-09-14T00:59:55.334Z,13.82
2022-09-14T01:02:28.657Z,13.80
2022-09-14T01:05:01.791Z,13.80
2022-09-14T01:08:29.313Z,13.80
2022-09-14T01:11:13.818Z,13.80
2022-09-14T01:14:04.291Z,13.78
2022-09-14T01:16:47.948Z,13.80
2022-09-14T01:19:52.291Z,13.80
2022-09-14T01:22:36.486Z,13.77
2022-09-14T01:25:32.806Z,13.76
2022-09-14T01:28:15.103Z,13.78
2022-09-14T01:30:50.871Z,13.77
2022-09-14T01:33:38.105Z,13.77
2022-09-14T01:36:16.499Z,13.72
2022-09-14T01:38:52.641Z,13.73
2022-09-14T01:41:30.293Z,13.71
2022-09-14T01:44:15.097Z,13.73
2022-09-14T01:46:55.285Z,13.72
2022-09-14T01:49:40.193Z,13.71
2022-09-14T01:52:24.163Z,13.73
2022-09-14T01:55:34.022Z,13.72
2022-09-14T01:58:16.460Z,13.70
2022-09-14T02:00:52.091Z,13.67
2022-09-14T02:03:29.790Z,13.65
2022-09-14T02:06:12.608Z,13.65
2022-09-14T02:08:48.684Z,13.63
2022-09-14T02:11:23.378Z,13.61
2022-09-14T02:13:56.062Z,13.59
2022-09-14T02:16:31.282Z,13.56
2022-09-14T02:19:07.388Z,13.54
2022-09-14T02:21:42.623Z,13.49
2022-09-14T02:24:20.389Z,13.51
2022-09-14T02:26:57.027Z,13.51
2022-09-14T02:29:32.290Z,13.49
2022-09-14T02:32:12.492Z,13.51
2022-09-14T02:35:09.064Z,13.50
2022-09-14T02:38:07.308Z,13.52
2022-09-14T02:41:05.787Z,13.51
2022-09-14T02:43:56.005Z,13.49
2022-09-14T02:46:34.065Z,13.46
2022-09-14T02:49:15.997Z,13.47
2022-09-14T02:52:02.534Z,13.42
2022-09-14T02:54:51.453Z,13.44
2022-09-14T02:57:28.257Z,13.44
2022-09-14T03:00:03.134Z,13.45
2022-09-14T03:02:39.813Z,13.43
2022-09-14T03:05:12.847Z,13.42
2022-09-14T03:07:45.340Z,13.44
2022-09-14T03:10:18.205Z,13.44
2022-09-14T03:12:50.882Z,13.45
2022-09-14T03:15:26.288Z,13.48
2022-09-14T03:17:58.727Z,13.46
2022-09-14T03:20:34.803Z,13.46
2022-09-14T03:23:09.163Z,13.45
2022-09-14T03:25:45.892Z,13.47
2022-09-14T03:28:18.486Z,13.47
2022-09-14T03:30:51.001Z,13.44
2022-09-14T03:33:25.790Z,13.44
2022-09-14T03:35:58.509Z,13.42
2022-09-14T03:38:33.845Z,13.38
2022-09-14T03:41:10.180Z,13.34
2022-09-14T03:43:44.172Z,13.31
2022-09-14T03:46:23.513Z,13.31
2022-09-14T03:48:56.555Z,13.31
2022-09-14T03:51:37.617Z,13.29
2022-09-14T03:54:10.194Z,13.27
2022-09-14T03:56:45.212Z,13.26
2022-09-14T03:59:24.950Z,13.27
2022-09-14T04:01:58.915Z,13.24
2022-09-14T04:04:57.882Z,13.24
2022-09-14T04:07:35.107Z,13.15
2022-09-14T04:10:08.550Z,13.18
2022-09-14T04:12:41.065Z,13.15
2022-09-14T04:15:13.761Z,13.16
2022-09-14T04:17:46.354Z,13.12
2022-09-14T04:20:20.247Z,13.13
2022-09-14T04:22:55.324Z,13.14
2022-09-14T04:25:30.145Z,13.11
2022-09-14T04:28:19.759Z,13.13
2022-09-14T04:31:03.902Z,13.11
2022-09-14T04:33:39.431Z,13.11
2022-09-14T04:36:16.213Z,13.12
2022-09-14T04:38:54.967Z,13.12
2022-09-14T04:41:30.257Z,13.11
2022-09-14T04:44:02.907Z,13.10
2022-09-14T04:46:42.124Z,13.09
2022-09-14T04:49:24.034Z,13.10
2022-09-14T04:51:59.303Z,13.07
2022-09-14T04:54:35.500Z,13.04
2022-09-14T04:57:14.615Z,13.02
2022-09-14T04:59:53.130Z,13.00
2022-09-14T05:02:29.047Z,12.96
2022-09-14T05:05:12.521Z,12.97
2022-09-14T05:07:54.046Z,12.93
2022-09-14T05:10:35.468Z,12.93
2022-09-14T05:13:10.613Z,12.94
2022-09-14T05:15:45.781Z,12.92
2022-09-14T05:21:26.581Z,12.88
2022-09-14T05:24:08.856Z,12.89
2022-09-14T05:26:48.344Z,12.91
2022-09-14T05:29:38.285Z,12.92
2022-09-14T05:32:25.008Z,12.95
2022-09-14T05:35:05.550Z,12.95
2022-09-14T05:37:47.901Z,12.97
2022-09-14T05:40:30.190Z,12.98
2022-09-14T05:43:03.166Z,12.97
2022-09-14T05:46:05.341Z,12.96
2022-09-14T05:48:41.619Z,12.98
2022-09-14T05:51:29.531Z,12.98
2022-09-14T06:02:04.138Z,13.04
2022-09-14T06:04:39.585Z,13.03
2022-09-14T06:07:18.696Z,13.05
2022-09-14T06:09:51.757Z,13.05
2022-09-14T06:12:27.040Z,13.09
2022-09-14T06:14:59.578Z,13.09
2022-09-14T06:17:32.256Z,13.05
2022-09-14T06:20:09.299Z,13.01
2022-09-14T06:22:44.683Z,12.99
2022-09-14T06:25:17.731Z,12.95
2022-09-14T06:27:54.196Z,12.99
2022-09-14T06:30:27.809Z,13.01
2022-09-14T06:33:00.576Z,13.02
2022-09-14T06:35:33.114Z,12.99
2022-09-14T06:38:08.430Z,12.99
2022-09-14T06:40:52.090Z,13.04
2022-09-14T06:43:26.354Z,13.06
2022-09-14T06:46:04.783Z,13.03
2022-09-14T06:48:39.877Z,13.01
2022-09-14T06:51:15.549Z,12.97
2022-09-14T06:53:48.524Z,12.97
2022-09-14T06:56:21.697Z,12.95
2022-09-14T06:58:54.438Z,12.93
2022-09-14T07:01:27.676Z,12.96
2022-09-14T07:04:01.663Z,12.94
2022-09-14T07:06:43.464Z,12.93
2022-09-14T07:09:18.427Z,12.93
2022-09-14T07:11:51.061Z,12.92
2022-09-14T07:14:23.684Z,12.93
2022-09-14T07:16:56.254Z,12.85
2022-09-14T07:19:28.793Z,12.87
2022-09-14T07:22:01.988Z,12.81
2022-09-14T07:24:34.538Z,12.82
2022-09-14T07:27:07.021Z,12.83
2022-09-14T07:29:39.658Z,12.88
2022-09-14T07:32:12.125Z,12.90
2022-09-14T07:34:44.572Z,12.93
2022-09-14T07:37:16.969Z,13.00
2022-09-14T07:39:49.504Z,13.02
2022-09-14T07:42:21.930Z,13.09
2022-09-14T07:44:54.641Z,13.14
2022-09-14T07:47:27.030Z,13.16
2022-09-14T07:49:59.416Z,13.18
2022-09-14T07:52:35.566Z,13.27
2022-09-14T07:55:12.509Z,13.22
2022-09-14T07:57:56.050Z,13.22
2022-09-14T08:00:29.257Z,13.25
2022-09-14T08:03:01.852Z,13.28
2022-09-14T08:05:34.258Z,13.31
2022-09-14T08:08:06.676Z,13.34
2022-09-14T08:10:39.108Z,13.38
2022-09-14T08:13:12.136Z,13.38
2022-09-14T08:15:45.352Z,13.35
2022-09-14T08:18:17.964Z,13.37
2022-09-14T08:20:50.514Z,13.37
2022-09-14T08:23:23.562Z,13.46
2022-09-14T08:25:56.154Z,13.45
2022-09-14T08:28:28.559Z,13.51
2022-09-14T08:31:10.180Z,13.56
2022-09-14T08:33:46.236Z,13.61
2022-09-14T08:36:21.394Z,13.62
2022-09-14T08:38:54.156Z,13.62
2022-09-14T08:41:29.581Z,13.67
2022-09-14T08:44:11.505Z,13.77
2022-09-14T08:46:59.760Z,13.76
2022-09-14T08:49:48.760Z,13.76
2022-09-14T08:52:29.272Z,13.82
2022-09-14T08:55:19.296Z,13.82
2022-09-14T08:58:16.246Z,13.80
2022-09-14T09:01:01.233Z,13.80
2022-09-14T09:03:53.152Z,13.81
2022-09-14T09:07:03.723Z,13.84
2022-09-14T09:09:40.755Z,13.82
2022-09-14T09:12:21.268Z,13.83
2022-09-14T09:14:56.843Z,13.90
2022-09-14T09:17:32.181Z,13.91
2022-09-14T09:20:23.403Z,13.91
2022-09-14T09:23:15.544Z,13.87
2022-09-14T09:26:07.833Z,13.92
2022-09-14T09:28:52.121Z,14.04
2022-09-14T09:31:33.142Z,14.05
2022-09-14T09:34:06.416Z,14.11
2022-09-14T09:36:41.809Z,14.18
2022-09-14T09:39:15.721Z,14.18
2022-09-14T09:41:54.838Z,14.27
2022-09-14T09:44:27.541Z,14.35
2022-09-14T09:47:01.749Z,14.38
2022-09-14T09:49:39.881Z,14.32
2022-09-14T09:52:17.160Z,14.36
2022-09-14T09:54:52.662Z,14.35
2022-09-14T09:57:34.491Z,14.36
2022-09-14T10:00:11.336Z,14.41
2022-09-14T10:02:44.090Z,14.49
2022-09-14T10:05:22.599Z,14.61
2022-09-14T10:08:00.920Z,14.64
2022-09-14T10:10:38.605Z,14.71
2022-09-14T10:13:23.058Z,14.71
2022-09-14T10:16:07.394Z,14.72
2022-09-14T10:18:51.404Z,14.75
2022-09-14T10:21:25.753Z,14.78
2022-09-14T10:24:14.905Z,14.81
2022-09-14T10:26:47.359Z,14.93
2022-09-14T10:29:41.505Z,15.04
2022-09-14T10:32:20.129Z,15.04
2022-09-14T10:34:53.044Z,15.02
2022-09-14T10:37:37.064Z,14.95
2022-09-14T10:40:17.216Z,14.89
2022-09-14T10:43:16.857Z,14.79
2022-09-14T10:45:59.047Z,14.78
2022-09-14T10:48:57.335Z,14.74
2022-09-14T10:51:38.929Z,14.79
2022-09-14T10:54:29.678Z,14.83
2022-09-14T10:57:26.073Z,14.82
2022-09-14T11:00:13.199Z,14.85
2022-09-14T11:03:12.369Z,14.88
2022-09-14T11:06:26.605Z,14.92
2022-09-14T11:09:16.333Z,14.95
2022-09-14T11:11:53.609Z,14.90
2022-09-14T11:14:34.753Z,14.83
2022-09-14T11:17:38.352Z,14.88
2022-09-14T11:20:34.308Z,14.81
2022-09-14T11:23:25.628Z,14.83
2022-09-14T11:26:03.158Z,14.72
2022-09-14T11:28:51.818Z,14.68
2022-09-14T11:31:37.798Z,14.63
2022-09-14T11:34:29.063Z,14.58
2022-09-14T11:37:08.516Z,14.52
2022-09-14T11:40:05.131Z,14.47
2022-09-14T11:42:46.515Z,14.39
2022-09-14T11:45:28.930Z,14.37
2022-09-14T11:48:42.284Z,14.28
2022-09-14T11:51:22.444Z,14.24
2022-09-14T11:53:55.102Z,14.24
2022-09-14T11:56:32.860Z,14.21
2022-09-14T11:59:07.259Z,14.25
2022-09-14T12:01:40.697Z,14.26
2022-09-14T12:04:17.590Z,14.35
2022-09-14T12:06:53.968Z,14.38
2022-09-14T12:09:26.419Z,14.21
2022-09-14T12:11:59.815Z,14.33
2022-09-14T12:14:36.472Z,14.33
2022-09-14T12:17:41.701Z,14.37
2022-09-14T12:20:52.864Z,14.31
2022-09-14T12:23:37.247Z,14.34
2022-09-14T12:26:15.858Z,14.30
2022-09-14T12:28:50.674Z,14.30
2022-09-14T12:31:49.356Z,14.26
2022-09-14T12:34:33.291Z,14.26
2022-09-14T12:37:30.349Z,14.33
2022-09-14T12:40:36.308Z,14.28
2022-09-14T12:43:33.480Z,14.28
2022-09-14T12:46:38.410Z,14.33
2022-09-14T12:49:28.565Z,14.37
2022-09-14T12:52:14.015Z,14.40
2022-09-14T12:55:16.038Z,14.38
2022-09-14T12:58:01.558Z,14.42
2022-09-14T13:00:56.996Z,14.49
2022-09-14T13:03:51.980Z,14.50
2022-09-14T13:06:33.022Z,14.55
2022-09-14T13:09:11.937Z,14.63
2022-09-14T13:11:46.776Z,14.58
2022-09-14T13:14:20.249Z,14.58
2022-09-14T13:16:54.281Z,14.61
2022-09-14T13:19:29.762Z,14.61
2022-09-14T13:22:02.480Z,14.64
2022-09-14T13:24:34.837Z,14.69
2022-09-14T13:27:33.975Z,14.62
2022-09-14T13:30:21.706Z,14.60
2022-09-14T13:32:56.320Z,14.59
2022-09-14T13:35:45.506Z,14.54
2022-09-14T13:38:30.986Z,14.53
2022-09-14T13:41:09.593Z,14.55
2022-09-14T13:43:43.622Z,14.57
2022-09-14T13:46:20.242Z,14.52
2022-09-14T13:48:54.064Z,14.53
2022-09-14T13:51:28.696Z,14.50
2022-09-14T13:54:19.663Z,14.43
2022-09-14T13:57:13.056Z,14.38
2022-09-14T14:00:26.296Z,14.44
2022-09-14T14:03:04.408Z,14.26
2022-09-14T14:05:42.565Z,14.27
2022-09-14T14:08:35.403Z,14.20
2022-09-14T14:11:08.771Z,14.21
2022-09-14T14:13:41.314Z,14.13
2022-09-14T14:16:18.513Z,14.15
2022-09-14T14:18:55.445Z,14.16
2022-09-14T14:21:31.034Z,14.16
2022-09-14T14:24:21.932Z,14.01
2022-09-14T14:26:57.336Z,14.09
2022-09-14T14:29:29.742Z,14.02
2022-09-14T14:32:02.523Z,14.12
2022-09-14T14:34:34.944Z,14.15
2022-09-14T14:37:07.721Z,14.10
2022-09-14T14:39:40.143Z,14.09
2022-09-14T14:42:14.208Z,14.16
2022-09-14T14:44:46.685Z,14.24
2022-09-14T14:47:19.063Z,14.28
2022-09-14T14:49:51.425Z,14.41
2022-09-14T14:52:23.811Z,14.48
2022-09-14T14:54:56.191Z,14.44
2022-09-14T14:57:28.865Z,14.26
2022-09-14T15:00:01.421Z,14.34
2022-09-14T15:02:33.796Z,14.28
2022-09-14T15:05:06.866Z,14.21
2022-09-14T15:07:39.752Z,14.20
2022-09-14T15:10:15.477Z,14.10
2022-09-14T15:12:48.096Z,14.10
2022-09-14T15:15:23.930Z,14.03
2022-09-14T15:17:56.322Z,14.11
2022-09-14T15:20:28.790Z,14.15
2022-09-14T15:23:01.296Z,14.17
2022-09-14T15:25:33.750Z,14.24
2022-09-14T15:28:06.224Z,14.26
2022-09-14T15:30:38.656Z,14.39
2022-09-14T15:33:11.258Z,14.42
2022-09-14T15:35:43.673Z,14.51
2022-09-14T15:38:16.050Z,14.62
2022-09-14T15:40:48.620Z,14.66
2022-09-14T15:43:21.156Z,14.78
2022-09-14T15:45:53.642Z,14.92
2022-09-14T15:48:26.157Z,15.02
2022-09-14T15:51:00.628Z,15.11
2022-09-14T15:53:33.034Z,15.21
2022-09-14T15:56:13.817Z,15.24
2022-09-14T15:58:48.960Z,15.32
2022-09-14T16:01:21.601Z,15.36
2022-09-14T16:04:01.699Z,15.30
2022-09-14T16:06:34.660Z,15.34
2022-09-14T16:09:12.180Z,15.41
2022-09-14T16:11:44.739Z,15.47
2022-09-14T16:14:17.305Z,15.50
2022-09-14T16:16:49.989Z,15.53
2022-09-14T16:19:22.581Z,15.56
2022-09-14T16:21:55.414Z,15.52
2022-09-14T16:24:28.748Z,15.57
2022-09-14T16:27:01.637Z,15.58
2022-09-14T16:29:34.218Z,15.58
2022-09-14T16:32:07.180Z,15.50
2022-09-14T16:34:39.998Z,15.50
2022-09-14T16:37:12.649Z,15.49
2022-09-14T16:39:48.175Z,15.47
2022-09-14T16:42:21.027Z,15.46
2022-09-14T16:44:53.460Z,15.37
2022-09-14T16:47:25.931Z,15.27
2022-09-14T16:49:58.453Z,15.27
2022-09-14T16:52:31.256Z,15.25
2022-09-14T16:55:04.138Z,15.20
2022-09-14T16:57:36.633Z,15.15
2022-09-14T17:00:09.886Z,15.09
2022-09-14T17:02:42.824Z,15.06
2022-09-14T17:05:15.702Z,14.99
2022-09-14T17:07:48.144Z,14.96
2022-09-14T17:10:20.587Z,14.93
2022-09-14T17:12:52.992Z,14.90
2022-09-14T17:15:25.373Z,14.86
2022-09-14T17:17:57.742Z,14.83
2022-09-14T17:20:30.277Z,14.75
2022-09-14T17:23:02.704Z,14.75
2022-09-14T17:25:35.178Z,14.72
2022-09-14T17:28:07.610Z,14.74
2022-09-14T17:30:41.848Z,14.74
2022-09-14T17:33:14.424Z,14.73
2022-09-14T17:35:48.887Z,14.71
2022-09-14T17:38:23.218Z,14.63
2022-09-14T17:41:07.752Z,14.54
2022-09-14T17:43:40.565Z,14.46
2022-09-14T17:46:15.878Z,14.34
2022-09-14T17:48:49.408Z,14.24
2022-09-14T17:51:25.888Z,14.18
2022-09-14T17:53:59.001Z,14.09
2022-09-14T17:56:32.022Z,13.97
2022-09-14T17:59:11.657Z,13.89
2022-09-14T18:01:44.153Z,13.80
2022-09-14T18:04:17.430Z,13.70
2022-09-14T18:06:50.173Z,13.61
2022-09-14T18:09:29.250Z,13.54
2022-09-14T18:12:01.847Z,13.46
2022-09-14T18:14:34.246Z,13.38
2022-09-14T18:17:06.978Z,13.27
2022-09-14T18:19:39.960Z,13.17
2022-09-14T18:22:12.562Z,13.09
2022-09-14T18:24:45.070Z,13.00
2022-09-14T18:27:17.731Z,12.92
2022-09-14T18:29:50.242Z,12.81
2022-09-14T18:32:22.760Z,12.75
2022-09-14T18:34:55.283Z,12.68
2022-09-14T18:37:27.673Z,12.61
2022-09-14T18:40:00.646Z,12.56
2022-09-14T18:42:33.209Z,12.50
2022-09-14T18:45:07.971Z,12.44
2022-09-14T18:47:40.399Z,12.42
2022-09-14T18:50:16.976Z,12.40
2022-09-14T18:52:51.275Z,12.37
2022-09-14T18:55:23.733Z,12.32
2022-09-14T18:57:56.242Z,12.29
2022-09-14T19:00:28.956Z,12.27
2022-09-14T19:03:01.645Z,12.26
2022-09-14T19:05:40.325Z,12.24
2022-09-14T19:08:13.552Z,12.25
2022-09-14T19:10:46.068Z,12.22
2022-09-14T19:13:18.514Z,12.17
2022-09-14T19:15:51.114Z,12.14
2022-09-14T19:18:23.829Z,12.10
2022-09-14T19:21:06.269Z,12.06
2022-09-14T19:23:39.539Z,12.03
2022-09-14T19:26:17.820Z,11.99
2022-09-14T19:28:50.421Z,11.97
2022-09-14T19:31:24.351Z,11.94
2022-09-14T19:34:01.538Z,11.93
2022-09-14T19:36:34.839Z,11.91
2022-09-14T19:39:07.354Z,11.90
2022-09-14T19:41:40.152Z,11.93
2022-09-14T19:44:13.614Z,11.98
2022-09-14T19:46:46.254Z,12.00
2022-09-14T19:49:23.861Z,12.01
2022-09-14T19:51:56.608Z,11.99
2022-09-14T19:54:29.096Z,11.98
2022-09-14T19:57:01.712Z,11.94
2022-09-14T19:59:34.159Z,11.93
2022-09-14T20:02:07.084Z,11.93
2022-09-14T20:04:39.602Z,11.89
2022-09-14T20:07:11.997Z,11.87
2022-09-14T20:09:44.450Z,11.84
2022-09-14T20:12:16.930Z,11.84
2022-09-14T20:14:49.423Z,11.83
2022-09-14T20:17:21.961Z,11.80
2022-09-14T20:19:54.352Z,11.77
2022-09-14T20:22:26.765Z,11.73
2022-09-14T20:24:59.221Z,11.72
2022-09-14T20:27:31.722Z,11.69
2022-09-14T20:30:05.311Z,11.67
2022-09-14T20:32:37.700Z,11.66
2022-09-14T20:35:10.169Z,11.64
2022-09-14T20:37:43.622Z,11.65
2022-09-14T20:40:16.134Z,11.66
2022-09-14T20:42:48.518Z,11.72
2022-09-14T20:45:20.946Z,11.79
2022-09-14T20:47:53.320Z,11.84
2022-09-14T20:50:25.691Z,11.91
2022-09-14T20:52:58.388Z,11.96
2022-09-14T20:55:32.676Z,12.01
2022-09-14T20:58:05.057Z,12.03
2022-09-14T21:00:37.456Z,12.08
2022-09-14T21:03:11.788Z,12.10
2022-09-14T21:05:44.485Z,12.12
2022-09-14T21:08:18.043Z,12.16
2022-09-14T21:10:50.519Z,12.20
2022-09-14T21:13:23.463Z,12.24
2022-09-14T21:15:55.983Z,12.26
2022-09-14T21:18:28.512Z,12.29
2022-09-14T21:21:13.278Z,12.28
2022-09-14T21:23:48.588Z,12.30
2022-09-14T21:26:21.392Z,12.32
2022-09-14T21:28:56.915Z,12.36
2022-09-14T21:31:29.980Z,12.38
2022-09-14T21:34:04.805Z,12.38
2022-09-14T21:36:43.023Z,12.37
2022-09-14T21:39:19.304Z,12.37
2022-09-14T21:41:58.325Z,12.35
2022-09-14T21:44:34.545Z,12.31
2022-09-14T21:47:06.984Z,12.30
2022-09-14T21:49:39.413Z,12.26
2022-09-14T21:52:11.799Z,12.22
2022-09-14T21:54:44.222Z,12.18
2022-09-14T21:57:16.648Z,12.16
2022-09-14T21:59:49.229Z,12.14
2022-09-14T22:02:21.765Z,12.17
2022-09-14T22:04:54.226Z,12.17
2022-09-14T22:07:29.099Z,12.18
2022-09-14T22:10:01.509Z,12.17
2022-09-14T22:12:34.028Z,12.18
2022-09-14T22:15:06.837Z,12.19
2022-09-14T22:17:39.266Z,12.21
2022-09-14T22:20:11.694Z,12.22
2022-09-14T22:22:44.436Z,12.23
2022-09-14T22:25:17.657Z,12.25
2022-09-14T22:27:51.237Z,12.25
2022-09-14T22:30:23.674Z,12.24
2022-09-14T22:32:56.093Z,12.25
2022-09-14T22:35:28.618Z,12.28
2022-09-14T22:38:01.834Z,12.34
2022-09-14T22:40:34.206Z,12.37
2022-09-14T22:43:06.728Z,12.37
2022-09-14T22:45:39.403Z,12.40
2022-09-14T22:48:11.987Z,12.42
2022-09-14T22:50:46.096Z,12.43
2022-09-14T22:53:20.195Z,12.44
2022-09-14T22:55:52.763Z,12.43
2022-09-14T22:58:27.617Z,12.45
2022-09-14T23:01:06.398Z,12.45
2022-09-14T23:03:38.949Z,12.44
2022-09-14T23:06:11.958Z,12.43
2022-09-14T23:08:44.435Z,12.40
2022-09-14T23:11:16.858Z,12.36
2022-09-14T23:13:50.181Z,12.28
2022-09-14T23:16:26.207Z,12.19
2022-09-14T23:19:03.998Z,12.09
2022-09-14T23:21:36.441Z,12.01
2022-09-14T23:24:10.450Z,11.92
2022-09-14T23:26:43.048Z,11.86
2022-09-14T23:29:17.410Z,11.80
2022-09-14T23:31:49.824Z,11.78
2022-09-14T23:34:22.345Z,11.75
2022-09-14T23:36:56.970Z,11.72
2022-09-14T23:39:29.616Z,11.68
2022-09-14T23:42:02.051Z,11.66
2022-09-14T23:44:34.733Z,11.65
2022-09-14T23:47:08.022Z,11.67
2022-09-14T23:49:40.540Z,11.66
2022-09-14T23:52:13.604Z,11.63
2022-09-14T23:54:46.038Z,11.61
2022-09-14T23:57:18.404Z,11.59
2022-09-14T23:59:50.878Z,11.56
